Aviation Digital Data Service (ADDS)

Output produced by TAFs form (1600 UTC 27 February 2017)
found at http://www.aviationweather.gov/adds/tafs/
 
KPOU 271139Z 2712/2812 21006KT P6SM SKC 
     FM271400 22008KT P6SM FEW120 SCT250 
     FM271700 23012G20KT P6SM SCT090 
     FM272300 20004KT P6SM BKN100 
     FM280200 00000KT P6SM OVC090 
     FM280900 00000KT P6SM OVC060